Time;durP1;ratioP1;P1;durP2;ratioP2;P2;SDS_P1;SDS_P2;PMS_P1;PMS_P2;Temp;Humidity;BMP_temperature;BMP_pressure;BME280_temperature;BME280_humidity;BME280_pressure;Samples;Min_cycle;Max_cycle;Signal;HPM_P1;HPM_P2
2023/05/07 00:00:38;;;;;;;6.68;3.50;;;18.80;80.20;;;;;;7423779;19;19910;-83
2023/05/07 00:03:04;;;;;;;8.07;3.85;;;18.90;83.10;;;;;;7423648;19;19931;-84
2023/05/07 00:05:30;;;;;;;7.53;4.07;;;18.90;83.20;;;;;;7318427;19;19963;-83
2023/05/07 00:07:56;;;;;;;8.82;4.25;;;18.90;84.30;;;;;;7424527;19;20347;-82
2023/05/07 00:10:21;;;;;;;9.18;4.93;;;18.90;84.90;;;;;;7422071;19;19921;-83
2023/05/07 00:12:47;;;;;;;9.77;4.60;;;18.90;85.90;;;;;;7424567;19;20017;-82
2023/05/07 00:15:14;;;;;;;8.65;4.60;;;18.90;86.50;;;;;;7401780;19;19939;-82
2023/05/07 00:17:40;;;;;;;9.73;4.85;;;18.90;86.90;;;;;;7425203;19;20007;-82
2023/05/07 00:20:07;;;;;;;8.13;4.15;;;19.00;87.30;;;;;;7418266;19;19915;-82
2023/05/07 00:22:33;;;;;;;12.05;5.15;;;19.00;87.50;;;;;;7417712;19;23758;-82
2023/05/07 00:24:59;;;;;;;8.75;4.22;;;18.90;87.80;;;;;;7422104;19;19910;-83
2023/05/07 00:27:26;;;;;;;9.43;4.53;;;18.90;88.30;;;;;;7421362;19;19919;-82
2023/05/07 00:29:52;;;;;;;10.13;4.15;;;18.90;88.80;;;;;;7368699;19;20271;-82
2023/05/07 00:32:18;;;;;;;8.13;4.45;;;18.80;89.40;;;;;;7420847;19;19911;-82
2023/05/07 00:34:44;;;;;;;7.22;4.40;;;18.80;89.60;;;;;;7425299;19;19926;-81
2023/05/07 00:37:11;;;;;;;8.05;4.60;;;18.80;90.10;;;;;;7420953;19;19910;-82
2023/05/07 00:39:37;;;;;;;9.45;4.40;;;18.70;90.40;;;;;;7419545;19;19911;-82
2023/05/07 00:42:08;;;;;;;8.73;4.38;;;18.80;90.70;;;;;;7414507;19;19932;-82
2023/05/07 00:44:34;;;;;;;6.63;3.45;;;18.70;90.90;;;;;;7424069;19;19914;-82
2023/05/07 00:47:03;;;;;;;6.88;3.78;;;18.60;91.20;;;;;;7424426;19;19925;-83
2023/05/07 00:49:46;;;;;;;7.68;3.08;;;18.60;91.30;;;;;;7419294;19;20363;-83
2023/05/07 00:52:15;;;;;;;7.53;4.18;;;18.60;91.50;;;;;;7420955;19;19910;-83
2023/05/07 00:54:42;;;;;;;7.45;4.20;;;18.60;92.20;;;;;;7423511;19;19918;-82
2023/05/07 00:57:11;;;;;;;7.15;4.03;;;18.50;93.10;;;;;;7424401;19;19950;-83
2023/05/07 00:59:37;;;;;;;8.57;4.68;;;18.50;93.70;;;;;;7421985;19;19919;-82
2023/05/07 01:02:03;;;;;;;9.55;5.03;;;18.40;94.40;;;;;;7422754;19;19919;-83
2023/05/07 01:04:29;;;;;;;8.73;4.88;;;18.50;95.30;;;;;;7369792;19;19908;-83
2023/05/07 01:06:57;;;;;;;9.35;4.93;;;18.50;95.70;;;;;;7423994;19;20457;-82
2023/05/07 01:09:24;;;;;;;7.07;4.68;;;18.50;96.30;;;;;;7418439;19;19982;-83
2023/05/07 01:11:51;;;;;;;;;;;18.50;96.60;;;;;;7422790;19;19950;-82
2023/05/07 01:14:19;;;;;;;10.85;5.35;;;18.50;97.20;;;;;;7419816;19;19979;-82
2023/05/07 01:16:44;;;;;;;;;;;18.60;97.70;;;;;;7423401;19;19919;-82
2023/05/07 01:19:13;;;;;;;9.25;5.30;;;18.60;98.50;;;;;;7419772;19;19929;-81
2023/05/07 01:21:45;;;;;;;11.05;6.18;;;18.60;98.80;;;;;;7421620;19;19940;-83
2023/05/07 01:24:12;;;;;;;11.48;6.35;;;18.60;99.10;;;;;;7417642;19;19910;-83
2023/05/07 01:26:39;;;;;;;9.73;5.57;;;18.60;99.50;;;;;;7417913;19;19919;-84
2023/05/07 01:29:06;;;;;;;11.00;5.30;;;18.60;98.90;;;;;;7420647;19;19956;-83
2023/05/07 01:31:34;;;;;;;10.30;5.35;;;18.60;98.20;;;;;;7420859;19;19922;-82
2023/05/07 01:34:01;;;;;;;8.05;4.20;;;18.60;97.20;;;;;;7421507;19;19982;-84
2023/05/07 01:36:30;;;;;;;8.13;4.22;;;18.60;96.40;;;;;;7421735;19;19915;-82
2023/05/07 01:38:57;;;;;;;10.23;4.32;;;18.60;95.90;;;;;;7420577;19;19967;-83
2023/05/07 01:41:24;;;;;;;7.95;4.13;;;18.70;95.50;;;;;;7419797;19;19918;-82
2023/05/07 01:43:52;;;;;;;9.02;3.80;;;18.70;95.60;;;;;;7422285;19;19971;-82
2023/05/07 01:46:18;;;;;;;7.32;4.03;;;18.60;95.30;;;;;;7421504;19;19923;-82
2023/05/07 01:48:47;;;;;;;8.40;3.53;;;18.60;94.10;;;;;;7425056;19;19915;-84
2023/05/07 01:51:12;;;;;;;6.97;3.22;;;18.60;93.40;;;;;;7421905;19;19918;-82
2023/05/07 01:53:40;;;;;;;6.88;3.38;;;18.60;92.70;;;;;;7424851;19;19910;-82
2023/05/07 01:56:06;;;;;;;7.10;3.17;;;18.60;92.00;;;;;;7420421;19;20235;-82
2023/05/07 01:58:32;;;;;;;7.78;3.95;;;18.60;91.40;;;;;;7422170;19;20285;-81
2023/05/07 02:00:58;;;;;;;8.05;3.53;;;18.60;90.90;;;;;;7417159;19;19915;-82
2023/05/07 02:03:24;;;;;;;7.07;4.28;;;18.50;90.40;;;;;;7420271;19;19926;-83
2023/05/07 02:05:49;;;;;;;9.93;4.00;;;18.50;89.30;;;;;;7420635;19;19919;-82
2023/05/07 02:08:15;;;;;;;8.48;4.60;;;18.40;89.40;;;;;;7421699;19;19931;-81
2023/05/07 02:10:41;;;;;;;7.80;3.95;;;18.40;89.40;;;;;;7419861;19;19943;-82
2023/05/07 02:13:06;;;;;;;9.13;3.85;;;18.30;89.30;;;;;;7420856;19;19918;-82
2023/05/07 02:15:32;;;;;;;8.10;3.80;;;18.30;89.40;;;;;;7416694;19;19915;-82
2023/05/07 02:17:59;;;;;;;8.85;4.28;;;18.30;89.50;;;;;;7421749;19;19927;-82
2023/05/07 02:20:27;;;;;;;9.00;4.55;;;18.30;89.60;;;;;;7417853;19;19938;-81
2023/05/07 02:22:52;;;;;;;8.15;4.07;;;18.30;89.50;;;;;;7420940;19;19935;-81
2023/05/07 02:25:18;;;;;;;9.50;4.53;;;18.30;89.70;;;;;;7421699;19;19918;-82
2023/05/07 02:27:44;;;;;;;11.43;4.32;;;18.20;89.80;;;;;;7421326;19;19918;-82
2023/05/07 02:30:10;;;;;;;8.32;4.15;;;18.20;90.00;;;;;;7416090;19;19922;-82
2023/05/07 02:32:36;;;;;;;8.50;4.32;;;18.20;90.00;;;;;;7418500;19;19947;-82
2023/05/07 02:35:02;;;;;;;10.63;4.60;;;18.20;90.30;;;;;;7416719;19;19922;-82
2023/05/07 02:37:28;;;;;;;8.15;4.10;;;18.10;90.60;;;;;;7419927;19;19926;-82
2023/05/07 02:39:53;;;;;;;12.75;4.72;;;18.10;90.80;;;;;;7416162;19;19911;-82
2023/05/07 02:42:19;;;;;;;14.55;4.78;;;18.20;91.00;;;;;;7414158;19;19933;-82
2023/05/07 02:44:45;;;;;;;10.95;5.13;;;18.20;91.30;;;;;;7417379;19;19922;-84
2023/05/07 02:47:12;;;;;;;11.30;4.32;;;18.20;91.50;;;;;;7417866;19;19946;-83
2023/05/07 02:49:38;;;;;;;10.30;4.57;;;18.20;91.90;;;;;;7418998;19;19917;-82
2023/05/07 02:52:06;;;;;;;8.23;4.55;;;18.20;92.00;;;;;;7417869;19;19914;-82
2023/05/07 02:54:32;;;;;;;7.75;4.78;;;18.20;92.20;;;;;;7417322;19;19914;-84
2023/05/07 02:56:58;;;;;;;8.45;5.20;;;18.20;92.50;;;;;;7415901;19;19935;-83
2023/05/07 02:59:26;;;;;;;9.20;4.88;;;18.20;92.70;;;;;;7415927;19;19919;-83
2023/05/07 03:01:52;;;;;;;9.70;5.03;;;18.20;92.90;;;;;;7422193;19;20347;-83
2023/05/07 03:04:18;;;;;;;;;;;18.20;93.20;;;;;;7420692;19;19930;-83
2023/05/07 03:06:44;;;;;;;11.30;5.25;;;18.20;93.40;;;;;;7421089;19;19922;-84
2023/05/07 03:09:10;;;;;;;10.48;4.93;;;18.30;93.70;;;;;;7416516;19;19910;-83
2023/05/07 03:11:36;;;;;;;8.00;4.32;;;18.30;93.50;;;;;;7423068;19;19927;-83
2023/05/07 03:14:02;;;;;;;9.57;4.65;;;18.30;93.60;;;;;;7425666;19;19939;-82
2023/05/07 03:16:28;;;;;;;8.52;3.92;;;18.30;93.80;;;;;;7430588;19;19927;-82
2023/05/07 03:18:55;;;;;;;9.98;4.22;;;18.30;94.00;;;;;;7428584;19;19931;-82
2023/05/07 03:21:21;;;;;;;9.25;4.82;;;18.20;94.00;;;;;;7404941;19;19917;-84
2023/05/07 03:23:47;;;;;;;8.60;5.13;;;18.20;94.10;;;;;;7405271;19;19919;-82
2023/05/07 03:26:13;;;;;;;7.95;3.60;;;18.30;94.40;;;;;;7374353;19;19946;-82
2023/05/07 03:28:38;;;;;;;7.50;3.67;;;18.20;94.40;;;;;;7426818;19;19930;-81
2023/05/07 03:31:04;;;;;;;6.80;3.63;;;18.20;94.50;;;;;;7426605;19;19930;-83
2023/05/07 03:33:34;;;;;;;6.60;3.83;;;18.30;94.60;;;;;;7425578;19;19919;-82
2023/05/07 03:36:04;;;;;;;8.50;4.35;;;18.20;94.60;;;;;;7425145;19;19934;-82
2023/05/07 03:38:36;;;;;;;7.50;4.03;;;18.20;94.70;;;;;;7371530;19;19946;-83
2023/05/07 03:41:01;;;;;;;6.68;3.70;;;18.30;94.90;;;;;;7425354;19;19926;-82
2023/05/07 03:43:27;;;;;;;7.13;3.83;;;18.20;94.60;;;;;;7427814;19;19943;-82
2023/05/07 03:45:53;;;;;;;7.05;3.88;;;18.20;94.70;;;;;;7373992;19;20014;-84
2023/05/07 03:48:21;;;;;;;7.35;3.80;;;18.10;94.40;;;;;;7350734;19;19919;-82
2023/05/07 03:50:49;;;;;;;8.77;3.97;;;18.00;94.50;;;;;;7426575;19;19944;-83
2023/05/07 03:53:15;;;;;;;8.90;3.95;;;18.00;94.70;;;;;;7425785;19;19907;-84
2023/05/07 03:55:40;;;;;;;7.57;3.28;;;17.90;94.70;;;;;;7423645;19;19922;-83
2023/05/07 03:58:06;;;;;;;5.72;3.63;;;17.80;94.70;;;;;;7422479;19;19918;-82
2023/05/07 04:00:36;;;;;;;8.15;3.85;;;17.70;94.60;;;;;;7426242;19;20361;-83
2023/05/07 04:03:04;;;;;;;7.32;3.35;;;17.70;94.70;;;;;;7426516;19;19957;-82
2023/05/07 04:05:30;;;;;;;8.15;3.90;;;17.70;94.20;;;;;;7424238;19;20334;-82
2023/05/07 04:07:58;;;;;;;9.02;4.00;;;17.60;93.90;;;;;;7424976;19;19930;-82
2023/05/07 04:10:24;;;;;;;6.75;3.55;;;17.60;93.90;;;;;;7426753;19;19959;-83
2023/05/07 04:12:50;;;;;;;7.85;3.42;;;17.50;94.00;;;;;;7426874;19;19910;-83
2023/05/07 04:15:16;;;;;;;5.45;3.13;;;17.50;93.90;;;;;;7402168;19;19927;-83
2023/05/07 04:17:43;;;;;;;7.75;3.20;;;17.50;93.90;;;;;;7426502;19;19918;-82
2023/05/07 04:20:10;;;;;;;8.25;3.92;;;17.40;94.10;;;;;;7424516;19;19927;-82
2023/05/07 04:22:42;;;;;;;9.20;4.43;;;17.40;94.30;;;;;;7406366;19;19914;-83
2023/05/07 04:25:09;;;;;;;7.55;3.92;;;17.30;94.30;;;;;;7423135;19;19986;-83
2023/05/07 04:27:35;;;;;;;;;;;17.30;94.50;;;;;;7428524;19;19910;-82
2023/05/07 04:30:02;;;;;;;12.38;4.70;;;17.30;94.70;;;;;;7425831;19;19911;-81
2023/05/07 04:32:29;;;;;;;11.23;5.30;;;17.30;95.90;;;;;;7371861;19;19919;-83
2023/05/07 04:34:58;;;;;;;8.23;4.18;;;17.30;95.90;;;;;;7424903;19;19954;-83
2023/05/07 04:37:25;;;;;;;11.27;4.82;;;17.40;95.90;;;;;;7424142;19;19906;-82
2023/05/07 04:39:53;;;;;;;9.50;3.78;;;17.30;96.00;;;;;;7424140;19;19919;-83
2023/05/07 04:42:20;;;;;;;9.68;4.82;;;17.30;96.20;;;;;;7423113;19;19975;-82
2023/05/07 04:44:47;;;;;;;8.38;4.20;;;17.30;96.30;;;;;;7424967;19;19938;-82
2023/05/07 04:47:13;;;;;;;8.18;3.53;;;17.30;96.40;;;;;;7402328;19;19910;-83
2023/05/07 04:49:39;;;;;;;6.50;3.20;;;17.30;96.40;;;;;;7428101;19;19907;-83
2023/05/07 04:52:05;;;;;;;8.02;3.50;;;17.30;96.40;;;;;;7427311;19;19911;-82
2023/05/07 04:54:30;;;;;;;7.28;4.22;;;17.30;96.10;;;;;;7426538;19;19951;-82
2023/05/07 04:56:56;;;;;;;6.35;3.30;;;17.30;95.90;;;;;;7427570;19;20457;-83
2023/05/07 04:59:23;;;;;;;9.23;3.65;;;17.40;95.80;;;;;;7427001;19;20070;-83
2023/05/07 05:01:48;;;;;;;6.07;2.83;;;17.30;95.70;;;;;;7424645;19;19923;-83
2023/05/07 05:04:14;;;;;;;7.38;3.45;;;17.40;95.30;;;;;;7424893;19;19919;-83
2023/05/07 05:06:40;;;;;;;7.00;2.90;;;17.40;95.00;;;;;;7425939;19;19919;-82
2023/05/07 05:09:06;;;;;;;5.18;3.05;;;17.40;94.70;;;;;;7425926;19;19918;-83
2023/05/07 05:11:32;;;;;;;5.75;2.53;;;17.50;94.50;;;;;;7401766;19;19922;-82
2023/05/07 05:14:00;;;;;;;6.40;2.60;;;17.50;94.20;;;;;;7381908;19;19910;-81
2023/05/07 05:16:26;;;;;;;5.22;2.60;;;17.50;93.80;;;;;;7423724;19;19943;-81
2023/05/07 05:18:52;;;;;;;5.53;2.60;;;17.70;93.50;;;;;;7426278;19;19974;-81
2023/05/07 05:21:18;;;;;;;4.50;2.03;;;17.70;92.90;;;;;;7425377;19;19922;-81
2023/05/07 05:23:45;;;;;;;4.68;2.20;;;17.80;92.30;;;;;;7428896;19;19915;-81
2023/05/07 05:26:11;;;;;;;5.32;2.08;;;17.90;91.90;;;;;;7428262;19;19914;-81
2023/05/07 05:28:40;;;;;;;5.38;2.40;;;17.90;91.50;;;;;;7424483;19;19914;-82
2023/05/07 05:31:06;;;;;;;5.25;2.38;;;18.10;91.20;;;;;;7424987;19;19922;-81
2023/05/07 05:33:31;;;;;;;5.63;2.38;;;18.10;90.90;;;;;;7426267;19;19915;-81
2023/05/07 05:35:57;;;;;;;4.60;2.17;;;18.30;90.80;;;;;;7425626;19;19994;-81
2023/05/07 05:38:23;;;;;;;5.47;2.20;;;18.30;90.60;;;;;;7424253;19;19979;-81
2023/05/07 05:40:49;;;;;;;4.03;2.03;;;18.30;90.60;;;;;;7425339;19;19925;-82
2023/05/07 05:43:15;;;;;;;6.07;3.00;;;18.40;90.50;;;;;;7422635;19;19915;-81
2023/05/07 05:45:41;;;;;;;6.45;2.40;;;18.40;90.30;;;;;;7424316;19;19919;-81
2023/05/07 05:48:08;;;;;;;5.55;2.28;;;18.50;90.30;;;;;;7422844;19;19915;-82
2023/05/07 05:50:36;;;;;;;5.72;2.42;;;18.50;90.10;;;;;;7427342;19;19929;-81
2023/05/07 05:53:02;;;;;;;6.97;2.47;;;18.50;90.00;;;;;;7419654;19;19926;-81
2023/05/07 05:55:29;;;;;;;3.70;2.33;;;18.60;89.90;;;;;;7384683;19;19958;-81
2023/05/07 05:57:56;;;;;;;5.32;2.92;;;18.60;89.50;;;;;;7424721;19;19938;-80
2023/05/07 06:00:23;;;;;;;;;;;18.70;89.20;;;;;;7406652;19;19915;-80
2023/05/07 06:02:49;;;;;;;8.02;2.35;;;18.80;88.90;;;;;;7429026;19;19955;-82
2023/05/07 06:05:15;;;;;;;6.65;2.78;;;18.90;88.80;;;;;;7424625;19;19923;-81
2023/05/07 06:07:41;;;;;;;4.88;2.15;;;19.00;88.30;;;;;;7423570;19;19930;-82
2023/05/07 06:10:07;;;;;;;7.10;2.63;;;19.20;87.50;;;;;;7371201;19;19911;-81
2023/05/07 06:12:33;;;;;;;7.63;2.42;;;19.30;87.00;;;;;;7423650;19;19936;-81
2023/05/07 06:14:58;;;;;;;5.97;2.42;;;19.50;86.50;;;;;;7424858;19;19910;-81
2023/05/07 06:17:26;;;;;;;4.95;2.42;;;19.70;85.70;;;;;;7423245;19;20284;-81
2023/05/07 06:19:54;;;;;;;4.93;2.10;;;19.80;85.20;;;;;;7370888;19;19907;-82
2023/05/07 06:22:19;;;;;;;5.95;2.00;;;20.00;85.10;;;;;;7421318;19;19919;-82
2023/05/07 06:24:46;;;;;;;6.07;2.47;;;20.20;85.20;;;;;;7423364;19;19937;-82
2023/05/07 06:27:11;;;;;;;7.40;2.65;;;20.30;85.10;;;;;;7422742;19;19911;-82
2023/05/07 06:29:37;;;;;;;5.07;2.63;;;20.50;85.20;;;;;;7421860;19;19914;-81
2023/05/07 06:32:07;;;;;;;6.10;2.42;;;20.60;85.70;;;;;;7421354;19;19918;-81
2023/05/07 06:34:33;;;;;;;6.13;2.65;;;20.60;86.00;;;;;;7422795;19;19955;-81
2023/05/07 06:36:59;;;;;;;7.78;2.97;;;20.70;87.20;;;;;;7424210;19;19922;-81
2023/05/07 06:39:25;;;;;;;6.45;2.78;;;20.80;87.10;;;;;;7421167;19;19911;-83
2023/05/07 06:41:50;;;;;;;6.22;2.60;;;20.80;87.40;;;;;;7421479;19;19918;-80
2023/05/07 06:44:16;;;;;;;6.07;3.20;;;20.80;87.40;;;;;;7421985;19;19918;-82
2023/05/07 06:46:43;;;;;;;7.40;3.22;;;20.70;88.10;;;;;;7423329;19;19929;-81
2023/05/07 06:49:09;;;;;;;6.70;3.42;;;20.70;88.60;;;;;;7427906;19;19921;-82
2023/05/07 06:51:35;;;;;;;6.68;3.03;;;20.60;89.90;;;;;;7430881;19;19919;-82
2023/05/07 06:54:01;;;;;;;8.30;3.53;;;20.50;90.20;;;;;;7428252;19;19914;-82
2023/05/07 06:56:27;;;;;;;6.97;3.30;;;20.40;90.90;;;;;;7429855;19;19918;-82
2023/05/07 06:58:52;;;;;;;5.72;3.33;;;20.20;91.50;;;;;;7430888;19;20029;-81
2023/05/07 07:01:18;;;;;;;6.45;3.33;;;20.10;91.90;;;;;;7428289;19;19918;-82
2023/05/07 07:03:44;;;;;;;7.25;3.60;;;20.00;92.40;;;;;;7426916;19;19918;-81
2023/05/07 07:06:10;;;;;;;5.95;3.22;;;19.90;92.80;;;;;;7426231;19;19919;-82
2023/05/07 07:08:38;;;;;;;8.20;3.95;;;19.80;93.30;;;;;;7427114;19;19911;-81
2023/05/07 07:11:04;;;;;;;6.78;3.72;;;19.70;93.70;;;;;;7356208;19;19932;-82
2023/05/07 07:13:30;;;;;;;7.43;4.32;;;19.70;93.90;;;;;;7406873;19;19915;-81
2023/05/07 07:15:56;;;;;;;5.68;3.78;;;19.70;93.90;;;;;;7427885;19;19907;-81
2023/05/07 07:18:22;;;;;;;6.00;3.53;;;19.70;93.90;;;;;;7427124;19;20855;-82
2023/05/07 07:20:48;;;;;;;7.40;3.42;;;19.70;93.90;;;;;;7430851;19;19914;-82
2023/05/07 07:23:14;;;;;;;6.13;3.38;;;19.70;94.00;;;;;;7427688;19;19922;-82
2023/05/07 07:25:40;;;;;;;5.90;3.58;;;19.70;94.00;;;;;;7430756;19;19926;-82
2023/05/07 07:28:06;;;;;;;8.85;3.70;;;19.80;94.00;;;;;;7424253;19;19926;-81
2023/05/07 07:30:33;;;;;;;6.43;3.60;;;19.80;93.90;;;;;;7428083;19;19979;-82
2023/05/07 07:33:03;;;;;;;10.35;3.88;;;19.80;94.10;;;;;;7427599;19;19903;-83
2023/05/07 07:35:35;;;;;;;8.63;4.20;;;19.90;94.00;;;;;;7426565;19;19926;-82
2023/05/07 07:38:01;;;;;;;9.18;4.03;;;19.90;93.80;;;;;;7429184;19;19925;-82
2023/05/07 07:40:27;;;;;;;8.98;3.92;;;19.90;93.70;;;;;;7423781;19;19940;-82
2023/05/07 07:42:54;;;;;;;7.10;3.65;;;19.90;93.70;;;;;;7424505;19;19946;-81
2023/05/07 07:45:20;;;;;;;5.95;3.63;;;19.90;93.60;;;;;;7425840;19;19922;-83
2023/05/07 07:47:47;;;;;;;6.13;3.58;;;19.90;93.50;;;;;;7405235;19;19918;-82
2023/05/07 07:50:13;;;;;;;6.45;3.15;;;19.90;93.40;;;;;;7425164;19;19947;-81
2023/05/07 07:52:40;;;;;;;8.18;3.58;;;20.00;93.30;;;;;;7427734;19;19918;-80
2023/05/07 07:55:07;;;;;;;8.13;3.28;;;20.00;93.20;;;;;;7423125;19;19910;-83
2023/05/07 07:57:33;;;;;;;6.45;3.10;;;20.20;93.10;;;;;;7372886;19;19923;-81
2023/05/07 07:59:59;;;;;;;5.68;3.20;;;20.30;93.30;;;;;;7423008;19;19921;-81
2023/05/07 08:02:25;;;;;;;6.63;3.38;;;20.20;93.70;;;;;;7423666;19;19922;-80
2023/05/07 08:04:52;;;;;;;7.03;3.60;;;20.30;94.10;;;;;;7425329;19;19907;-81
2023/05/07 08:07:20;;;;;;;5.78;3.67;;;20.30;94.60;;;;;;7425147;19;19915;-80
2023/05/07 08:09:46;;;;;;;7.18;3.60;;;20.40;94.40;;;;;;7423697;19;19926;-82
2023/05/07 08:12:13;;;;;;;7.75;3.72;;;20.50;93.90;;;;;;7423899;19;19930;-81
2023/05/07 08:14:40;;;;;;;7.90;4.20;;;20.70;93.50;;;;;;7423318;19;19915;-82
2023/05/07 08:17:06;;;;;;;7.13;3.38;;;20.90;93.00;;;;;;7423903;19;19923;-81
2023/05/07 08:19:32;;;;;;;5.28;2.92;;;20.90;92.30;;;;;;7426135;19;19911;-82
2023/05/07 08:21:58;;;;;;;5.55;3.03;;;21.00;91.80;;;;;;7426111;19;19986;-81
2023/05/07 08:24:24;;;;;;;5.78;3.10;;;21.20;91.30;;;;;;7424076;19;20354;-82
2023/05/07 08:26:50;;;;;;;6.60;3.72;;;21.30;91.00;;;;;;7428188;19;19914;-81
2023/05/07 08:29:15;;;;;;;6.32;2.97;;;21.40;90.80;;;;;;7373641;19;19907;-81
2023/05/07 08:31:41;;;;;;;7.43;3.40;;;21.50;90.70;;;;;;7421325;19;19925;-80
2023/05/07 08:34:07;;;;;;;6.60;3.90;;;21.40;90.70;;;;;;7420852;19;20766;-81
2023/05/07 08:36:33;;;;;;;7.63;3.38;;;21.50;90.80;;;;;;7419289;19;19907;-83
2023/05/07 08:39:00;;;;;;;8.65;3.67;;;21.20;91.00;;;;;;7420404;19;19925;-82
2023/05/07 08:41:26;;;;;;;7.03;3.05;;;21.00;91.50;;;;;;7418504;19;19915;-80
2023/05/07 08:43:51;;;;;;;6.10;3.30;;;21.20;91.20;;;;;;7407384;19;19919;-73
2023/05/07 08:46:20;;;;;;;6.80;2.83;;;21.30;90.80;;;;;;7390500;19;19949;-73
2023/05/07 08:48:49;;;;;;;5.85;3.05;;;21.40;90.80;;;;;;7395962;19;20003;-73
2023/05/07 08:51:17;;;;;;;6.57;3.10;;;22.30;89.80;;;;;;7400364;19;19922;-75
2023/05/07 08:53:43;;;;;;;7.15;3.30;;;22.90;87.00;;;;;;7393533;19;19926;-74
2023/05/07 08:56:10;;;;;;;5.97;3.30;;;23.80;84.70;;;;;;7397836;19;19942;-74
2023/05/07 08:58:36;;;;;;;6.47;3.05;;;23.90;82.90;;;;;;7396108;19;20290;-74
2023/05/07 09:01:13;;;;;;;8.45;3.78;;;23.70;82.50;;;;;;7400962;19;19929;-75
2023/05/07 09:03:40;;;;;;;6.55;3.53;;;23.00;84.40;;;;;;7401185;19;20009;-74
2023/05/07 09:06:06;;;;;;;8.05;4.00;;;22.60;86.00;;;;;;7400704;19;19918;-73
2023/05/07 09:08:35;;;;;;;6.68;3.30;;;22.40;86.70;;;;;;7400591;19;20266;-74
2023/05/07 09:11:02;;;;;;;5.75;3.35;;;22.40;87.60;;;;;;7401816;19;19986;-74
2023/05/07 09:13:28;;;;;;;;;;;22.40;86.90;;;;;;7404437;19;19918;-76
2023/05/07 09:15:55;;;;;;;5.35;3.38;;;22.00;88.00;;;;;;7389912;19;19917;-73
2023/05/07 09:18:23;;;;;;;6.18;3.67;;;22.30;87.70;;;;;;7394821;19;20022;-74
2023/05/07 09:20:49;;;;;;;6.72;3.75;;;22.20;87.30;;;;;;7339959;19;19922;-73
2023/05/07 09:23:16;;;;;;;7.38;4.13;;;22.20;87.80;;;;;;7396338;19;19979;-75
2023/05/07 09:25:42;;;;;;;6.60;3.30;;;22.80;85.80;;;;;;7399370;19;19911;-74
2023/05/07 09:28:09;;;;;;;5.20;3.38;;;22.60;85.40;;;;;;7391971;19;20410;-74
2023/05/07 09:30:35;;;;;;;7.93;3.75;;;23.40;83.50;;;;;;7400077;19;19915;-74
2023/05/07 09:33:02;;;;;;;5.90;3.38;;;24.90;79.20;;;;;;7395306;19;20351;-74
2023/05/07 09:35:29;;;;;;;6.32;3.63;;;26.70;75.50;;;;;;7401202;19;19939;-74
2023/05/07 09:37:59;;;;;;;7.05;3.20;;;27.70;71.60;;;;;;7398520;19;19942;-73
2023/05/07 09:40:27;;;;;;;6.18;3.22;;;27.80;69.90;;;;;;7389644;19;19914;-73
2023/05/07 09:42:53;;;;;;;6.25;3.22;;;26.30;71.50;;;;;;7397253;19;19981;-72
2023/05/07 09:45:26;;;;;;;5.80;3.15;;;27.90;70.20;;;;;;7398427;19;19907;-73
2023/05/07 09:47:55;;;;;;;5.00;3.15;;;27.60;69.00;;;;;;7393081;19;19919;-73
2023/05/07 09:50:29;;;;;;;4.97;2.92;;;27.70;69.40;;;;;;7398585;19;19947;-74
2023/05/07 09:52:56;;;;;;;6.43;2.85;;;27.70;68.10;;;;;;7394900;19;20354;-74
2023/05/07 09:55:22;;;;;;;6.00;3.40;;;26.80;68.60;;;;;;7398096;19;19941;-73
2023/05/07 09:57:53;;;;;;;5.97;2.85;;;26.90;69.90;;;;;;7393987;19;19928;-75
2023/05/07 10:00:21;;;;;;;6.53;3.03;;;26.20;69.60;;;;;;7391644;19;19974;-73
2023/05/07 10:02:51;;;;;;;7.57;2.92;;;26.30;70.10;;;;;;7394070;19;19938;-75
2023/05/07 10:05:21;;;;;;;7.35;3.70;;;25.20;72.90;;;;;;7395053;19;19922;-73
2023/05/07 10:07:47;;;;;;;11.50;2.67;;;24.10;74.20;;;;;;7395487;19;19918;-73
2023/05/07 10:10:14;;;;;;;;;;;24.30;75.80;;;;;;7394844;19;19919;-72
2023/05/07 10:12:41;;;;;;;5.10;3.25;;;24.00;76.10;;;;;;7398338;19;19925;-74
2023/05/07 10:15:07;;;;;;;6.72;4.15;;;23.80;76.90;;;;;;7371789;19;19922;-73
2023/05/07 10:17:38;;;;;;;6.10;3.03;;;23.80;76.40;;;;;;7392701;19;19915;-73
2023/05/07 10:20:05;;;;;;;6.57;4.07;;;23.70;77.00;;;;;;7390856;19;19918;-73
2023/05/07 10:22:38;;;;;;;5.28;3.30;;;22.90;79.30;;;;;;7400133;19;20329;-73
2023/05/07 10:25:25;;;;;;;5.65;3.17;;;22.90;79.90;;;;;;7379994;19;19931;-74
2023/05/07 10:27:53;;;;;;;6.10;3.38;;;22.90;80.10;;;;;;7399758;19;19919;-73
2023/05/07 10:30:34;;;;;;;6.78;3.50;;;23.00;79.80;;;;;;7398251;19;19910;-73
2023/05/07 10:33:05;;;;;;;7.78;3.72;;;23.00;80.30;;;;;;7399476;19;19918;-73
2023/05/07 10:35:36;;;;;;;6.43;3.25;;;23.40;79.40;;;;;;7403703;19;19924;-73
2023/05/07 10:38:03;;;;;;;5.90;3.00;;;23.60;78.00;;;;;;7399063;19;19911;-73
2023/05/07 10:40:31;;;;;;;7.03;3.75;;;23.90;77.30;;;;;;7403695;19;19914;-72
2023/05/07 10:43:02;;;;;;;6.20;3.13;;;23.50;77.60;;;;;;7400754;19;19910;-73
2023/05/07 10:45:28;;;;;;;6.57;3.35;;;24.00;76.20;;;;;;7393600;19;19923;-73
2023/05/07 10:48:13;;;;;;;7.70;3.72;;;23.70;76.60;;;;;;7400367;19;19952;-73
2023/05/07 10:50:41;;;;;;;7.63;3.70;;;23.40;78.70;;;;;;7400216;19;19926;-74
2023/05/07 10:53:19;;;;;;;5.13;3.00;;;23.60;78.50;;;;;;7396180;19;19907;-75
2023/05/07 10:56:12;;;;;;;7.78;3.92;;;23.50;78.40;;;;;;7398768;19;20279;-75
2023/05/07 10:58:38;;;;;;;7.78;3.28;;;23.80;79.60;;;;;;7395798;19;19915;-74
2023/05/07 11:01:04;;;;;;;6.63;3.80;;;24.00;79.40;;;;;;7402472;19;19929;-74
2023/05/07 11:03:30;;;;;;;6.07;3.80;;;22.90;80.90;;;;;;7400662;19;20239;-74
2023/05/07 11:06:16;;;;;;;7.78;4.90;;;23.40;80.80;;;;;;7403952;19;20328;-75
2023/05/07 11:09:02;;;;;;;8.52;4.55;;;23.40;81.50;;;;;;7399596;19;19911;-73
2023/05/07 11:11:55;;;;;;;7.68;4.10;;;23.50;81.10;;;;;;7348114;19;19986;-73
2023/05/07 11:14:40;;;;;;;8.15;4.30;;;24.00;80.20;;;;;;7347707;19;19921;-74
2023/05/07 11:17:06;;;;;;;;;;;24.30;79.80;;;;;;7400160;19;19918;-74
2023/05/07 11:19:52;;;;;;;9.82;4.75;;;24.30;79.60;;;;;;7397435;19;20734;-74
2023/05/07 11:22:47;;;;;;;11.48;5.28;;;24.30;79.80;;;;;;7396232;19;19914;-73
2023/05/07 11:25:20;;;;;;;9.00;5.25;;;24.30;80.00;;;;;;7400078;19;19929;-73
2023/05/07 11:27:46;;;;;;;8.00;5.22;;;24.30;80.00;;;;;;7398447;19;19911;-74
2023/05/07 11:30:22;;;;;;;10.68;4.82;;;23.30;81.50;;;;;;7399169;19;19933;-73
2023/05/07 11:32:48;;;;;;;7.57;5.03;;;23.90;81.40;;;;;;7398759;19;19922;-74
2023/05/07 11:35:16;;;;;;;8.80;5.40;;;24.80;78.60;;;;;;7401476;19;20304;-77
2023/05/07 11:37:44;;;;;;;9.02;5.28;;;24.90;77.80;;;;;;7396877;19;19919;-74
2023/05/07 11:40:13;;;;;;;11.45;6.40;;;25.50;77.20;;;;;;7388717;19;20289;-75
2023/05/07 11:42:44;;;;;;;11.38;5.90;;;25.80;75.60;;;;;;7405842;19;19939;-77
2023/05/07 11:45:10;;;;;;;9.23;5.28;;;26.20;75.70;;;;;;7401943;19;19914;-79
2023/05/07 11:47:36;;;;;;;9.10;5.30;;;26.10;75.70;;;;;;7395863;19;19919;-76
2023/05/07 11:50:05;;;;;;;9.45;5.57;;;26.60;74.90;;;;;;7400480;19;19926;-75
2023/05/07 11:52:31;;;;;;;9.77;4.50;;;26.10;74.90;;;;;;7400822;19;19922;-76
2023/05/07 11:54:58;;;;;;;7.65;4.97;;;26.10;75.80;;;;;;7399025;19;20550;-74
2023/05/07 11:57:24;;;;;;;8.95;4.43;;;25.80;75.10;;;;;;7398718;19;19926;-76
2023/05/07 11:59:54;;;;;;;8.23;5.28;;;25.70;75.60;;;;;;7404656;19;19919;-75
2023/05/07 12:02:20;;;;;;;9.10;4.47;;;24.00;78.30;;;;;;7386132;19;19958;-75
2023/05/07 12:04:46;;;;;;;11.23;6.35;;;24.40;79.80;;;;;;7388198;19;19918;-75
2023/05/07 12:07:16;;;;;;;7.32;5.80;;;24.90;78.50;;;;;;7398449;19;20272;-73
2023/05/07 12:09:43;;;;;;;8.40;4.05;;;25.50;77.00;;;;;;7404727;19;19922;-73
2023/05/07 12:12:09;;;;;;;6.85;4.43;;;26.50;74.70;;;;;;7404892;19;19940;-74
2023/05/07 12:14:43;;;;;;;10.10;4.38;;;26.60;73.40;;;;;;7404452;19;19922;-74
2023/05/07 12:17:11;;;;;;;8.70;4.90;;;26.80;73.00;;;;;;7399873;19;19979;-73
2023/05/07 12:19:38;;;;;;;6.68;3.95;;;27.70;71.70;;;;;;7403649;19;19946;-73
2023/05/07 12:22:05;;;;;;;8.10;4.45;;;27.90;70.70;;;;;;7401839;19;19936;-74
2023/05/07 12:24:56;;;;;;;8.02;4.78;;;27.60;70.30;;;;;;7403750;19;19915;-73
2023/05/07 12:27:23;;;;;;;9.55;5.30;;;27.10;72.00;;;;;;7403923;19;19938;-72
2023/05/07 12:29:50;;;;;;;9.43;4.90;;;27.70;71.40;;;;;;7405892;19;19910;-72
2023/05/07 12:32:16;;;;;;;6.15;3.92;;;27.00;70.50;;;;;;7402358;19;19938;-72
2023/05/07 12:34:44;;;;;;;7.68;4.35;;;26.90;72.20;;;;;;7403653;19;19930;-74
2023/05/07 12:37:11;;;;;;;8.38;4.75;;;26.70;72.80;;;;;;7405121;19;19927;-74
2023/05/07 12:39:36;;;;;;;10.82;4.20;;;26.60;73.00;;;;;;7405485;19;19926;-74
2023/05/07 12:42:02;;;;;;;9.30;4.82;;;26.50;73.60;;;;;;7404619;19;19911;-73
2023/05/07 12:44:34;;;;;;;8.48;4.43;;;26.20;73.60;;;;;;7402744;19;19961;-72
2023/05/07 12:47:03;;;;;;;6.95;4.13;;;26.30;73.70;;;;;;7404413;19;19919;-72
2023/05/07 12:49:29;;;;;;;9.40;4.38;;;25.90;74.00;;;;;;7401053;19;19914;-74